createdAt,value
2019-05-18T00:00:29.771Z,17.60
2019-05-18T00:02:57.436Z,17.60
2019-05-18T00:05:25.103Z,17.50
2019-05-18T00:07:52.806Z,17.40
2019-05-18T00:10:20.475Z,17.30
2019-05-18T00:12:48.140Z,17.10
2019-05-18T00:15:15.868Z,17.10
2019-05-18T00:17:43.534Z,16.90
2019-05-18T00:20:11.283Z,16.80
2019-05-18T00:22:38.948Z,16.80
2019-05-18T00:25:07.263Z,16.70
2019-05-18T00:27:34.936Z,16.90
2019-05-18T00:30:02.662Z,16.90
2019-05-18T00:32:31.783Z,16.80
2019-05-18T00:34:59.558Z,16.70
2019-05-18T00:37:27.206Z,16.80
2019-05-18T00:39:54.858Z,16.70
2019-05-18T00:42:22.502Z,16.60
2019-05-18T00:44:50.136Z,16.40
2019-05-18T00:47:19.004Z,16.30
2019-05-18T00:49:46.664Z,16.20
2019-05-18T00:52:14.344Z,16.10
2019-05-18T00:54:41.961Z,16.00
2019-05-18T00:57:09.625Z,16.00
2019-05-18T00:59:37.383Z,16.00
2019-05-18T01:02:04.990Z,16.00
2019-05-18T01:04:32.725Z,15.90
2019-05-18T01:07:00.345Z,15.90
2019-05-18T01:09:28.102Z,16.00
2019-05-18T01:11:55.808Z,16.00
2019-05-18T01:14:23.472Z,16.00
2019-05-18T01:16:51.099Z,16.00
2019-05-18T01:19:18.794Z,15.90
2019-05-18T01:21:46.529Z,16.00
2019-05-18T01:24:15.173Z,16.00
2019-05-18T01:26:42.832Z,16.10
2019-05-18T01:29:13.306Z,16.00
2019-05-18T01:31:41.084Z,16.10
2019-05-18T01:34:08.748Z,16.20
2019-05-18T01:36:36.483Z,16.10
2019-05-18T01:39:05.262Z,16.00
2019-05-18T01:41:33.053Z,15.80
2019-05-18T01:44:00.793Z,15.70
2019-05-18T01:46:28.512Z,15.70
2019-05-18T01:48:56.262Z,15.80
2019-05-18T01:51:23.954Z,15.80
2019-05-18T01:53:51.584Z,15.80
2019-05-18T01:56:19.243Z,16.00
2019-05-18T01:58:46.881Z,16.00
2019-05-18T02:01:14.502Z,16.00
2019-05-18T02:03:42.140Z,16.00
2019-05-18T02:06:10.226Z,15.90
2019-05-18T02:08:37.870Z,15.90
2019-05-18T02:11:05.517Z,15.90
2019-05-18T02:13:34.175Z,15.90
2019-05-18T02:16:01.803Z,15.90
2019-05-18T02:18:29.528Z,15.90
2019-05-18T02:20:57.193Z,15.90
2019-05-18T02:23:24.837Z,15.90
2019-05-18T02:25:52.514Z,15.80
2019-05-18T02:28:20.137Z,15.60
2019-05-18T02:30:47.855Z,15.60
2019-05-18T02:33:15.512Z,15.60
2019-05-18T02:35:43.182Z,15.60
2019-05-18T02:38:16.504Z,15.50
2019-05-18T02:40:45.113Z,15.70
2019-05-18T02:43:12.719Z,15.70
2019-05-18T02:45:40.422Z,15.70
2019-05-18T02:48:08.081Z,15.70
2019-05-18T02:50:35.724Z,15.70
2019-05-18T02:53:03.546Z,15.60
2019-05-18T02:55:31.198Z,15.50
2019-05-18T02:57:58.813Z,15.40
2019-05-18T03:00:26.461Z,15.40
2019-05-18T03:02:54.214Z,15.50
2019-05-18T03:05:21.876Z,15.40
2019-05-18T03:07:49.635Z,15.30
2019-05-18T03:10:17.358Z,15.30
2019-05-18T03:12:45.003Z,15.40
2019-05-18T03:15:12.723Z,15.40
2019-05-18T03:17:40.329Z,15.50
2019-05-18T03:20:08.411Z,15.60
2019-05-18T03:22:36.035Z,15.50
2019-05-18T03:25:03.776Z,15.40
2019-05-18T03:27:31.405Z,15.30
2019-05-18T03:29:59.038Z,15.30
2019-05-18T03:32:26.735Z,15.40
2019-05-18T03:34:54.501Z,15.40
2019-05-18T03:37:22.290Z,15.50
2019-05-18T03:39:49.918Z,15.50
2019-05-18T03:42:17.557Z,15.50
2019-05-18T03:44:45.178Z,15.40
2019-05-18T03:47:13.181Z,15.40
2019-05-18T03:49:40.810Z,15.40
2019-05-18T03:52:08.449Z,15.40
2019-05-18T03:54:36.093Z,15.40
2019-05-18T03:57:03.768Z,15.40
2019-05-18T03:59:31.400Z,15.30
2019-05-18T04:01:59.033Z,15.30
2019-05-18T04:04:26.741Z,15.30
2019-05-18T04:06:55.493Z,15.30
2019-05-18T04:09:23.368Z,15.30
2019-05-18T04:11:51.025Z,15.30
2019-05-18T04:14:18.683Z,15.40
2019-05-18T04:16:46.367Z,15.30
2019-05-18T04:19:14.072Z,15.30
2019-05-18T04:21:41.714Z,15.30
2019-05-18T04:24:09.350Z,15.30
2019-05-18T04:26:37.148Z,15.40
2019-05-18T04:29:04.807Z,15.30
2019-05-18T04:31:32.766Z,15.40
2019-05-18T04:34:00.618Z,15.40
2019-05-18T04:36:28.261Z,15.40
2019-05-18T04:38:55.908Z,15.40
2019-05-18T04:41:23.542Z,15.30
2019-05-18T04:43:51.393Z,15.30
2019-05-18T04:46:19.046Z,15.30
2019-05-18T04:48:46.754Z,15.20
2019-05-18T04:51:14.407Z,15.20
2019-05-18T04:53:42.032Z,15.30
2019-05-18T04:56:09.649Z,15.40
2019-05-18T04:58:37.365Z,15.40
2019-05-18T05:01:05.049Z,15.40
2019-05-18T05:03:32.674Z,15.40
2019-05-18T05:06:00.325Z,15.40
2019-05-18T05:08:27.981Z,15.40
2019-05-18T05:10:55.657Z,15.40
2019-05-18T05:13:25.185Z,15.40
2019-05-18T05:15:53.022Z,15.50
2019-05-18T05:18:20.665Z,15.50
2019-05-18T05:20:48.337Z,15.50
2019-05-18T05:23:16.006Z,15.50
2019-05-18T05:25:43.633Z,15.60
2019-05-18T05:28:11.288Z,15.70
2019-05-18T05:30:38.924Z,15.70
2019-05-18T05:33:06.577Z,15.70
2019-05-18T05:35:34.271Z,15.80
2019-05-18T05:38:03.695Z,15.90
2019-05-18T05:40:31.333Z,15.90
2019-05-18T05:42:59.018Z,15.90
2019-05-18T05:45:26.745Z,15.80
2019-05-18T05:47:54.391Z,15.70
2019-05-18T05:50:34.582Z,15.80
2019-05-18T05:52:51.598Z,15.80
2019-05-18T05:55:19.261Z,15.90
2019-05-18T05:57:46.889Z,16.00
2019-05-18T06:00:14.630Z,16.00
2019-05-18T06:02:42.271Z,16.10
2019-05-18T06:05:10.909Z,16.10
2019-05-18T06:07:38.526Z,16.10
2019-05-18T06:10:06.424Z,16.10
2019-05-18T06:12:34.198Z,16.10
2019-05-18T06:15:01.894Z,16.20
2019-05-18T06:17:29.732Z,16.30
2019-05-18T06:19:57.358Z,16.30
2019-05-18T06:22:25.065Z,16.40
2019-05-18T06:24:52.726Z,16.50
2019-05-18T06:27:20.436Z,16.60
2019-05-18T06:29:48.102Z,16.60
2019-05-18T06:32:15.814Z,16.80
2019-05-18T06:34:43.568Z,17.00
2019-05-18T06:37:11.257Z,17.10
2019-05-18T06:39:38.963Z,17.20
2019-05-18T06:42:06.663Z,17.20
2019-05-18T06:44:34.312Z,17.30
2019-05-18T06:47:02.098Z,17.30
2019-05-18T06:49:29.779Z,17.30
2019-05-18T06:51:58.100Z,17.40
2019-05-18T06:54:25.761Z,17.50
2019-05-18T06:56:53.797Z,17.40
2019-05-18T06:59:22.353Z,17.60
2019-05-18T07:01:50.132Z,17.80
2019-05-18T07:04:17.786Z,18.00
2019-05-18T07:06:45.417Z,18.00
2019-05-18T07:09:14.576Z,18.00
2019-05-18T07:11:42.352Z,18.00
2019-05-18T07:14:24.576Z,18.10
2019-05-18T07:16:39.589Z,18.00
2019-05-18T07:19:07.303Z,17.90
2019-05-18T07:21:36.055Z,17.90
2019-05-18T07:24:03.690Z,18.10
2019-05-18T07:26:31.365Z,18.20
2019-05-18T07:28:59.066Z,18.20
2019-05-18T07:31:26.759Z,18.30
2019-05-18T07:33:54.435Z,18.30
2019-05-18T07:36:22.108Z,18.50
2019-05-18T07:38:49.808Z,18.50
2019-05-18T07:41:17.486Z,18.70
2019-05-18T07:43:45.150Z,18.70
2019-05-18T07:46:12.829Z,18.70
2019-05-18T07:48:40.713Z,18.80
2019-05-18T07:54:47.169Z,18.70
2019-05-18T07:57:14.797Z,18.90
2019-05-18T07:59:42.485Z,19.00
2019-05-18T08:02:10.136Z,19.00
2019-05-18T08:04:39.770Z,19.10
2019-05-18T08:07:07.328Z,19.20
2019-05-18T08:09:35.000Z,19.20
2019-05-18T08:12:02.747Z,19.20
2019-05-18T08:14:31.455Z,19.30
2019-05-18T08:16:59.182Z,19.40
2019-05-18T08:19:26.805Z,19.70
2019-05-18T08:21:54.453Z,19.90
2019-05-18T08:24:22.089Z,19.90
2019-05-18T08:26:49.722Z,20.00
2019-05-18T08:29:17.413Z,20.20
2019-05-18T08:31:45.121Z,20.40
2019-05-18T08:34:12.834Z,20.50
2019-05-18T08:36:40.519Z,20.70
2019-05-18T08:39:08.178Z,20.80
2019-05-18T08:41:35.923Z,20.80
2019-05-18T08:44:03.653Z,20.60
2019-05-18T08:46:31.390Z,20.80
2019-05-18T08:48:59.036Z,20.90
2019-05-18T08:51:26.782Z,21.10
2019-05-18T08:53:54.564Z,21.30
2019-05-18T08:56:22.285Z,21.10
2019-05-18T08:58:49.998Z,21.30
2019-05-18T09:01:17.702Z,21.40
2019-05-18T09:03:45.426Z,21.40
2019-05-18T09:06:13.250Z,21.40
2019-05-18T09:08:41.163Z,21.40
2019-05-18T09:11:08.903Z,21.40
2019-05-18T09:13:36.609Z,21.60
2019-05-18T09:16:04.347Z,21.90
2019-05-18T09:18:32.083Z,21.90
2019-05-18T09:21:00.893Z,22.00
2019-05-18T09:23:28.663Z,22.30
2019-05-18T09:25:56.514Z,22.50
2019-05-18T09:28:24.181Z,22.60
2019-05-18T09:30:52.024Z,22.70
2019-05-18T09:33:19.763Z,22.80
2019-05-18T09:35:47.488Z,22.90
2019-05-18T09:38:15.263Z,22.90
2019-05-18T09:40:43.057Z,22.90
2019-05-18T09:43:10.946Z,22.80
2019-05-18T09:45:38.701Z,22.70
2019-05-18T09:48:06.536Z,22.70
2019-05-18T09:50:34.222Z,22.90
2019-05-18T09:53:01.972Z,23.10
2019-05-18T09:55:29.758Z,23.30
2019-05-18T09:57:57.620Z,23.30
2019-05-18T10:00:25.717Z,23.20
2019-05-18T10:02:53.498Z,23.20
2019-05-18T10:05:21.288Z,23.10
2019-05-18T10:07:49.586Z,23.10
2019-05-18T10:10:17.809Z,23.10
2019-05-18T10:12:45.677Z,23.30
2019-05-18T10:15:13.594Z,23.30
2019-05-18T10:17:41.447Z,23.40
2019-05-18T10:20:10.174Z,23.50
2019-05-18T10:22:51.241Z,23.40
2019-05-18T10:25:07.938Z,23.50
2019-05-18T10:27:35.742Z,23.60
2019-05-18T10:30:03.719Z,23.70
2019-05-18T10:32:31.634Z,23.80
2019-05-18T10:34:59.317Z,23.80
2019-05-18T10:37:27.093Z,23.80
2019-05-18T10:39:54.755Z,23.90
2019-05-18T10:42:22.439Z,23.90
2019-05-18T10:44:50.167Z,23.80
2019-05-18T10:47:18.027Z,23.80
2019-05-18T10:49:45.760Z,23.90
2019-05-18T10:52:22.524Z,23.80
2019-05-18T10:54:50.308Z,23.40
2019-05-18T10:57:18.095Z,23.30
2019-05-18T10:59:45.857Z,23.40
2019-05-18T11:02:13.550Z,23.60
2019-05-18T11:04:41.221Z,23.60
2019-05-18T11:07:08.926Z,23.80
2019-05-18T11:09:36.682Z,23.90
2019-05-18T11:12:04.369Z,24.10
2019-05-18T11:14:32.069Z,24.10
2019-05-18T11:16:59.735Z,24.40
2019-05-18T11:19:27.505Z,24.50
2019-05-18T11:21:55.188Z,24.50
2019-05-18T11:24:22.875Z,24.70
2019-05-18T11:26:50.570Z,24.70
2019-05-18T11:29:22.461Z,24.70
2019-05-18T11:31:47.829Z,24.70
2019-05-18T11:34:15.549Z,24.80
2019-05-18T11:36:43.267Z,25.00
2019-05-18T11:39:10.936Z,25.10
2019-05-18T11:41:38.583Z,25.00
2019-05-18T11:44:06.424Z,24.90
2019-05-18T11:46:34.226Z,24.90
2019-05-18T11:49:02.478Z,25.00
2019-05-18T11:51:31.412Z,25.20
2019-05-18T11:53:59.145Z,25.30
2019-05-18T11:56:26.834Z,25.10
2019-05-18T11:58:54.529Z,25.00
2019-05-18T12:01:22.222Z,24.90
2019-05-18T12:03:50.187Z,25.10
2019-05-18T12:06:17.935Z,25.00
2019-05-18T12:08:45.631Z,25.20
2019-05-18T12:11:13.311Z,25.10
2019-05-18T12:13:41.375Z,25.00
2019-05-18T12:16:09.064Z,25.10
2019-05-18T12:18:36.811Z,25.20
2019-05-18T12:21:04.504Z,25.10
2019-05-18T12:23:32.331Z,24.90
2019-05-18T12:26:00.091Z,25.10
2019-05-18T12:28:27.764Z,25.30
2019-05-18T12:30:55.537Z,25.50
2019-05-18T12:33:23.169Z,25.60
2019-05-18T12:35:50.870Z,25.70
2019-05-18T12:38:18.498Z,25.70
2019-05-18T12:40:46.138Z,25.60
2019-05-18T12:43:13.992Z,25.60
2019-05-18T12:45:41.678Z,25.50
2019-05-18T12:48:09.707Z,25.50
2019-05-18T12:50:37.703Z,25.50
2019-05-18T12:53:05.485Z,25.50
2019-05-18T12:55:33.216Z,25.60
2019-05-18T12:58:01.077Z,25.80
2019-05-18T13:00:32.104Z,25.80
2019-05-18T13:02:59.825Z,25.70
2019-05-18T13:05:27.521Z,25.70
2019-05-18T13:07:55.238Z,25.60
2019-05-18T13:10:23.221Z,25.70
2019-05-18T13:12:50.896Z,25.50
2019-05-18T13:15:18.797Z,25.50
2019-05-18T13:17:46.570Z,25.40
2019-05-18T13:20:14.754Z,25.50
2019-05-18T13:22:42.480Z,25.70
2019-05-18T13:25:10.580Z,25.70
2019-05-18T13:27:39.994Z,25.90
2019-05-18T13:30:09.080Z,25.90
2019-05-18T13:32:36.855Z,26.00
2019-05-18T13:35:04.697Z,26.20
2019-05-18T13:37:32.489Z,25.90
2019-05-18T13:40:00.416Z,26.00
2019-05-18T13:42:28.109Z,25.80
2019-05-18T13:44:55.914Z,25.90
2019-05-18T13:47:23.815Z,25.90
2019-05-18T13:49:51.498Z,26.10
2019-05-18T13:52:19.282Z,26.30
2019-05-18T13:55:02.255Z,26.50
2019-05-18T13:57:16.642Z,26.50
2019-05-18T13:59:44.310Z,26.40
2019-05-18T14:02:12.197Z,26.30
2019-05-18T14:04:40.973Z,26.20
2019-05-18T14:07:08.657Z,26.20
2019-05-18T14:09:36.425Z,26.20
2019-05-18T14:12:04.234Z,26.30
2019-05-18T14:14:31.991Z,26.30
2019-05-18T14:16:59.699Z,26.20
2019-05-18T14:19:27.451Z,26.20
2019-05-18T14:21:55.294Z,26.20
2019-05-18T14:24:23.098Z,26.10
2019-05-18T14:26:50.843Z,26.10
2019-05-18T14:29:18.585Z,26.20
2019-05-18T14:31:46.301Z,26.20
2019-05-18T14:34:14.141Z,26.30
2019-05-18T14:36:42.126Z,26.40
2019-05-18T14:39:09.920Z,26.40
2019-05-18T14:41:37.630Z,26.50
2019-05-18T14:44:05.516Z,26.50
2019-05-18T14:46:33.345Z,26.60
2019-05-18T14:49:01.435Z,26.50
2019-05-18T14:51:29.434Z,26.50
2019-05-18T14:53:57.269Z,26.70
2019-05-18T14:56:25.004Z,26.70
2019-05-18T14:58:52.736Z,26.60
2019-05-18T15:01:20.408Z,26.60
2019-05-18T15:03:48.118Z,26.70
2019-05-18T15:06:15.873Z,26.90
2019-05-18T15:08:43.607Z,26.80
2019-05-18T15:11:11.306Z,26.50
2019-05-18T15:13:39.070Z,26.40
2019-05-18T15:16:06.826Z,26.40
2019-05-18T15:18:34.559Z,26.50
2019-05-18T15:21:02.274Z,26.50
2019-05-18T15:23:30.193Z,26.50
2019-05-18T15:25:57.971Z,26.50
2019-05-18T15:28:25.695Z,26.50
2019-05-18T15:30:53.448Z,26.20
2019-05-18T15:33:21.164Z,25.90
2019-05-18T15:35:48.866Z,25.80
2019-05-18T15:38:16.722Z,25.60
2019-05-18T15:40:44.802Z,25.50
2019-05-18T15:43:12.494Z,25.40
2019-05-18T15:45:40.268Z,25.30
2019-05-18T15:48:08.057Z,25.10
2019-05-18T15:50:35.794Z,24.70
2019-05-18T15:53:03.765Z,24.30
2019-05-18T15:55:31.514Z,23.90
2019-05-18T15:57:59.330Z,23.40
2019-05-18T16:00:27.076Z,23.10
2019-05-18T16:02:54.771Z,22.80
2019-05-18T16:05:22.448Z,22.80
2019-05-18T16:07:50.156Z,22.70
2019-05-18T16:10:17.934Z,22.60
2019-05-18T16:12:45.668Z,22.60
2019-05-18T16:15:13.694Z,22.60
2019-05-18T16:17:41.421Z,22.40
2019-05-18T16:20:10.346Z,22.40
2019-05-18T16:22:38.079Z,22.50
2019-05-18T16:25:06.371Z,22.70
2019-05-18T16:27:34.244Z,22.50
2019-05-18T16:30:02.054Z,22.50
2019-05-18T16:32:29.801Z,22.30
2019-05-18T16:34:57.587Z,22.20
2019-05-18T16:37:25.331Z,22.10
2019-05-18T16:39:53.125Z,22.20
2019-05-18T16:42:21.057Z,22.10
2019-05-18T16:44:48.852Z,22.10
2019-05-18T16:47:16.587Z,22.20
2019-05-18T16:49:44.265Z,22.30
2019-05-18T16:52:11.926Z,22.40
2019-05-18T16:54:39.701Z,22.40
2019-05-18T16:57:07.471Z,22.30
2019-05-18T16:59:35.170Z,22.30
2019-05-18T17:02:02.778Z,22.10
2019-05-18T17:04:30.499Z,22.10
2019-05-18T17:06:58.181Z,22.20
2019-05-18T17:09:25.925Z,22.30
2019-05-18T17:11:53.664Z,22.30
2019-05-18T17:14:23.268Z,22.30
2019-05-18T17:16:50.926Z,22.30
2019-05-18T17:19:18.506Z,22.10
2019-05-18T17:21:46.234Z,21.80
2019-05-18T17:24:14.094Z,21.60
2019-05-18T17:26:52.218Z,21.40
2019-05-18T17:29:11.558Z,21.20
2019-05-18T17:31:39.257Z,21.20
2019-05-18T17:34:08.849Z,20.90
2019-05-18T17:36:36.521Z,20.70
2019-05-18T17:39:05.405Z,20.50
2019-05-18T17:41:33.080Z,20.30
2019-05-18T17:44:00.738Z,20.20
2019-05-18T17:46:28.401Z,20.00
2019-05-18T17:48:56.086Z,20.00
2019-05-18T17:51:23.766Z,19.90
2019-05-18T17:53:51.569Z,19.90
2019-05-18T17:56:19.446Z,19.80
2019-05-18T17:58:47.330Z,19.90
2019-05-18T18:01:15.053Z,20.10
2019-05-18T18:03:42.741Z,20.00
2019-05-18T18:06:10.540Z,19.90
2019-05-18T18:08:38.298Z,19.80
2019-05-18T18:11:06.060Z,19.90
2019-05-18T18:13:33.709Z,19.90
2019-05-18T18:16:01.369Z,19.90
2019-05-18T18:18:30.258Z,19.90
2019-05-18T18:20:57.929Z,20.00
2019-05-18T18:23:25.741Z,20.00
2019-05-18T18:25:53.512Z,20.00
2019-05-18T18:28:21.206Z,20.00
2019-05-18T18:30:48.897Z,19.90
2019-05-18T18:33:16.647Z,19.90
2019-05-18T18:35:44.337Z,20.00
2019-05-18T18:38:12.094Z,20.10
2019-05-18T18:40:39.801Z,20.00
2019-05-18T18:43:07.518Z,19.80
2019-05-18T18:45:35.309Z,19.80
2019-05-18T18:48:03.158Z,19.90
2019-05-18T18:50:30.931Z,20.00
2019-05-18T18:52:58.681Z,20.00
2019-05-18T18:55:26.373Z,20.10
2019-05-18T18:57:54.076Z,20.00
2019-05-18T19:00:21.791Z,20.00
2019-05-18T19:02:49.471Z,20.20
2019-05-18T19:05:17.387Z,20.00
2019-05-18T19:07:45.046Z,20.00
2019-05-18T19:10:12.806Z,20.10
2019-05-18T19:12:41.119Z,20.00
2019-05-18T19:15:09.460Z,20.00
2019-05-18T19:17:37.178Z,20.20
2019-05-18T19:20:05.243Z,20.20
2019-05-18T19:22:32.877Z,20.20
2019-05-18T19:25:00.607Z,20.20
2019-05-18T19:27:28.292Z,20.20
2019-05-18T19:29:56.061Z,20.00
2019-05-18T19:32:23.883Z,19.70
2019-05-18T19:34:51.741Z,19.50
2019-05-18T19:37:19.604Z,19.40
2019-05-18T19:39:47.346Z,19.30
2019-05-18T19:42:15.096Z,19.30
2019-05-18T19:44:42.761Z,19.30
2019-05-18T19:47:10.621Z,19.40
2019-05-18T19:49:38.338Z,19.30
2019-05-18T19:52:07.088Z,19.30
2019-05-18T19:54:34.773Z,19.20
2019-05-18T19:57:02.611Z,19.10
2019-05-18T19:59:30.373Z,19.10
2019-05-18T20:01:58.103Z,19.10
2019-05-18T20:04:25.881Z,19.10
2019-05-18T20:06:53.612Z,19.10
2019-05-18T20:09:21.356Z,18.90
2019-05-18T20:11:49.168Z,19.10
2019-05-18T20:14:16.875Z,19.20
2019-05-18T20:16:44.563Z,19.10
2019-05-18T20:19:12.221Z,19.10
2019-05-18T20:21:40.018Z,19.10
2019-05-18T20:24:07.681Z,19.20
2019-05-18T20:26:35.373Z,19.30
2019-05-18T20:29:08.978Z,19.40
2019-05-18T20:31:36.719Z,19.40
2019-05-18T20:34:04.483Z,19.30
2019-05-18T20:36:32.161Z,19.20
2019-05-18T20:38:59.800Z,19.30
2019-05-18T20:41:27.553Z,19.30
2019-05-18T20:43:55.325Z,19.40
2019-05-18T20:46:23.004Z,19.40
2019-05-18T20:48:50.703Z,19.30
2019-05-18T20:51:18.441Z,19.40
2019-05-18T20:53:46.159Z,19.30
2019-05-18T20:56:13.896Z,19.30
2019-05-18T20:58:41.658Z,19.30
2019-05-18T21:01:09.362Z,19.20
2019-05-18T21:03:37.039Z,19.20
2019-05-18T21:06:04.678Z,19.10
2019-05-18T21:08:32.322Z,18.90
2019-05-18T21:11:00.113Z,18.90
2019-05-18T21:13:27.781Z,19.00
2019-05-18T21:15:55.640Z,18.80
2019-05-18T21:18:23.317Z,18.70
2019-05-18T21:20:51.033Z,18.70
2019-05-18T21:23:18.775Z,18.60
2019-05-18T21:25:47.539Z,18.60
2019-05-18T21:28:15.234Z,18.60
2019-05-18T21:30:42.876Z,18.50
2019-05-18T21:33:10.576Z,18.50
2019-05-18T21:35:38.241Z,18.60
2019-05-18T21:38:05.908Z,18.70
2019-05-18T21:40:33.579Z,18.80
2019-05-18T21:43:01.339Z,18.90
2019-05-18T21:45:29.000Z,18.90
2019-05-18T21:47:56.788Z,18.70
2019-05-18T21:50:24.441Z,18.50
2019-05-18T21:52:52.193Z,18.40
2019-05-18T21:55:19.836Z,18.50
2019-05-18T21:57:47.478Z,18.60
2019-05-18T22:00:15.134Z,18.60
2019-05-18T22:02:44.777Z,18.40
2019-05-18T22:05:12.745Z,18.30
2019-05-18T22:07:40.503Z,18.10
2019-05-18T22:10:08.457Z,18.00
2019-05-18T22:12:36.295Z,18.10
2019-05-18T22:15:04.529Z,18.10
2019-05-18T22:17:35.506Z,18.10
2019-05-18T22:20:04.071Z,18.20
2019-05-18T22:22:31.758Z,18.10
2019-05-18T22:24:59.421Z,17.90
2019-05-18T22:27:28.100Z,17.80
2019-05-18T22:29:55.758Z,17.80
2019-05-18T22:32:23.599Z,17.90
2019-05-18T22:34:51.331Z,18.00
2019-05-18T22:37:19.044Z,18.00
2019-05-18T22:39:46.763Z,18.10
2019-05-18T22:42:14.373Z,18.10
2019-05-18T22:44:42.026Z,18.10
2019-05-18T22:47:09.814Z,18.20
2019-05-18T22:49:37.515Z,18.30
2019-05-18T22:52:05.169Z,18.30
2019-05-18T22:54:32.888Z,18.20
2019-05-18T22:57:00.542Z,18.00
2019-05-18T22:59:28.169Z,17.80
2019-05-18T23:01:55.841Z,17.80
2019-05-18T23:04:23.540Z,17.90
2019-05-18T23:06:51.277Z,17.90
2019-05-18T23:09:18.923Z,17.80
2019-05-18T23:11:46.573Z,17.60
2019-05-18T23:14:14.230Z,17.40
2019-05-18T23:16:41.882Z,17.30
2019-05-18T23:19:09.553Z,17.40
2019-05-18T23:21:37.191Z,17.50
2019-05-18T23:24:04.901Z,17.60
2019-05-18T23:26:32.649Z,17.60
2019-05-18T23:29:01.329Z,17.40
2019-05-18T23:31:28.963Z,17.30
2019-05-18T23:33:56.676Z,17.10
2019-05-18T23:36:24.334Z,17.00
2019-05-18T23:38:52.041Z,17.00
2019-05-18T23:41:19.720Z,16.80
2019-05-18T23:43:47.353Z,16.90
2019-05-18T23:46:15.062Z,17.00
2019-05-18T23:48:42.748Z,17.10
2019-05-18T23:51:10.505Z,17.10
2019-05-18T23:53:38.207Z,17.00
2019-05-18T23:56:05.837Z,17.10
2019-05-18T23:58:33.458Z,17.10
